createdAt,value
2018-05-07T00:01:22.833Z,56.12
2018-05-07T00:03:50.383Z,55.94
2018-05-07T00:06:17.929Z,57.19
2018-05-07T00:08:45.498Z,57.29
2018-05-07T00:11:13.016Z,58.31
2018-05-07T00:13:40.662Z,58.83
2018-05-07T00:16:08.173Z,57.58
2018-05-07T00:18:35.695Z,57.72
2018-05-07T00:21:03.221Z,57.42
2018-05-07T00:23:30.749Z,59.84
2018-05-07T00:25:58.273Z,57.42
2018-05-07T00:28:25.825Z,57.52
2018-05-07T00:30:53.441Z,58.44
2018-05-07T00:33:21.091Z,56.99
2018-05-07T00:35:48.618Z,57.75
2018-05-07T00:38:16.138Z,58.35
2018-05-07T00:40:43.664Z,58.95
2018-05-07T00:43:11.223Z,57.64
2018-05-07T00:45:38.740Z,57.92
2018-05-07T00:48:06.270Z,58.50
2018-05-07T00:50:33.787Z,57.76
2018-05-07T00:53:01.297Z,58.33
2018-05-07T00:55:28.823Z,57.66
2018-05-07T00:57:56.350Z,58.38
2018-05-07T01:00:23.902Z,59.01
2018-05-07T01:02:51.504Z,59.74
2018-05-07T01:05:19.022Z,58.42
2018-05-07T01:07:46.626Z,59.68
2018-05-07T01:10:14.148Z,59.55
2018-05-07T01:12:41.724Z,58.40
2018-05-07T01:15:09.228Z,58.67
2018-05-07T01:17:36.744Z,60.16
2018-05-07T01:20:04.257Z,60.22
2018-05-07T01:22:31.808Z,60.20
2018-05-07T01:24:59.334Z,58.96
2018-05-07T01:27:26.856Z,59.97
2018-05-07T01:29:54.380Z,59.36
2018-05-07T01:32:21.901Z,59.40
2018-05-07T01:34:49.415Z,60.57
2018-05-07T01:37:16.921Z,60.14
2018-05-07T01:39:44.451Z,61.07
2018-05-07T01:42:11.986Z,59.62
2018-05-07T01:44:39.494Z,61.46
2018-05-07T01:47:07.031Z,60.05
2018-05-07T01:49:34.557Z,61.27
2018-05-07T01:52:02.192Z,61.75
2018-05-07T01:54:29.708Z,60.45
2018-05-07T01:56:57.216Z,62.60
2018-05-07T01:59:24.757Z,60.68
2018-05-07T02:01:52.284Z,60.63
2018-05-07T02:04:19.885Z,60.91
2018-05-07T02:06:47.440Z,62.20
2018-05-07T02:09:15.010Z,62.14
2018-05-07T02:11:42.557Z,61.40
2018-05-07T02:14:10.124Z,62.19
2018-05-07T02:16:38.508Z,61.73
2018-05-07T02:19:06.036Z,62.01
2018-05-07T02:21:33.560Z,62.25
2018-05-07T02:24:01.086Z,61.66
2018-05-07T02:26:28.601Z,61.98
2018-05-07T02:28:56.130Z,62.17
2018-05-07T02:31:23.786Z,62.25
2018-05-07T02:33:51.309Z,62.09
2018-05-07T02:36:18.844Z,64.33
2018-05-07T02:38:46.413Z,63.84
2018-05-07T02:41:13.938Z,62.71
2018-05-07T02:43:41.465Z,63.11
2018-05-07T02:46:09.126Z,62.76
2018-05-07T02:48:36.662Z,62.88
2018-05-07T02:51:04.197Z,64.63
2018-05-07T02:53:31.810Z,63.20
2018-05-07T02:55:59.332Z,64.54
2018-05-07T02:58:26.852Z,63.85
2018-05-07T03:00:54.485Z,64.39
2018-05-07T03:03:22.014Z,64.07
2018-05-07T03:05:49.605Z,63.48
2018-05-07T03:08:17.150Z,63.52
2018-05-07T03:10:44.676Z,63.72
2018-05-07T03:13:12.204Z,63.83
2018-05-07T03:15:39.721Z,64.86
2018-05-07T03:18:07.246Z,63.95
2018-05-07T03:20:34.761Z,65.16
2018-05-07T03:23:02.320Z,65.80
2018-05-07T03:25:29.847Z,65.60
2018-05-07T03:27:57.436Z,64.37
2018-05-07T03:30:24.970Z,66.34
2018-05-07T03:32:52.492Z,64.66
2018-05-07T03:35:20.015Z,64.95
2018-05-07T03:37:47.544Z,64.34
2018-05-07T03:40:15.103Z,65.61
2018-05-07T03:42:42.693Z,64.57
2018-05-07T03:45:10.211Z,64.59
2018-05-07T03:47:37.728Z,65.70
2018-05-07T03:50:05.276Z,65.27
2018-05-07T03:52:32.791Z,64.99
2018-05-07T03:55:00.355Z,65.37
2018-05-07T03:57:27.911Z,65.10
2018-05-07T03:59:55.516Z,65.14
2018-05-07T04:02:23.076Z,65.79
2018-05-07T04:04:50.601Z,65.89
2018-05-07T04:07:18.200Z,66.96
2018-05-07T04:09:45.725Z,67.53
2018-05-07T04:12:13.260Z,65.52
2018-05-07T04:14:40.800Z,66.37
2018-05-07T04:17:20.417Z,66.04
2018-05-07T04:19:59.972Z,67.38
2018-05-07T04:22:39.438Z,67.87
2018-05-07T04:25:07.044Z,66.50
2018-05-07T04:27:34.621Z,65.79
2018-05-07T04:30:02.139Z,66.19
2018-05-07T04:32:29.739Z,66.72
2018-05-07T04:34:57.269Z,66.73
2018-05-07T04:37:24.783Z,65.92
2018-05-07T04:39:52.316Z,67.04
2018-05-07T04:42:19.837Z,67.09
2018-05-07T04:44:47.407Z,67.82
2018-05-07T04:47:14.932Z,67.40
2018-05-07T04:49:42.456Z,67.30
2018-05-07T04:52:09.980Z,66.08
2018-05-07T04:54:37.499Z,66.83
2018-05-07T04:57:05.134Z,66.12
2018-05-07T04:59:32.694Z,66.11
2018-05-07T05:02:00.217Z,65.67
2018-05-07T05:04:27.810Z,64.99
2018-05-07T05:06:55.471Z,64.83
2018-05-07T05:09:23.039Z,64.85
2018-05-07T05:11:50.565Z,64.61
2018-05-07T05:14:18.156Z,65.12
2018-05-07T05:16:45.719Z,64.33
2018-05-07T05:19:13.251Z,64.12
2018-05-07T05:21:40.804Z,63.66
2018-05-07T05:24:08.325Z,63.10
2018-05-07T05:26:35.858Z,62.70
2018-05-07T05:29:03.416Z,62.73
2018-05-07T05:31:30.975Z,62.47
2018-05-07T05:33:58.496Z,62.21
2018-05-07T05:36:26.095Z,62.08
2018-05-07T05:38:53.620Z,61.74
2018-05-07T05:41:21.214Z,60.91
2018-05-07T05:43:48.796Z,60.71
2018-05-07T05:46:16.419Z,60.99
2018-05-07T05:48:43.934Z,60.37
2018-05-07T05:51:11.457Z,58.81
2018-05-07T05:53:38.981Z,59.66
2018-05-07T05:56:06.518Z,58.82
2018-05-07T05:58:34.142Z,58.96
2018-05-07T06:01:01.661Z,57.75
2018-05-07T06:03:29.195Z,57.64
2018-05-07T06:05:56.718Z,57.59
2018-05-07T06:08:24.238Z,57.12
2018-05-07T06:10:51.764Z,56.86
2018-05-07T06:13:19.396Z,55.37
2018-05-07T06:15:46.952Z,55.07
2018-05-07T06:18:14.484Z,53.77
2018-05-07T06:20:42.080Z,52.89
2018-05-07T06:23:09.633Z,51.12
2018-05-07T06:25:37.189Z,52.15
2018-05-07T06:28:04.721Z,52.75
2018-05-07T06:30:32.294Z,53.64
2018-05-07T06:32:59.815Z,52.95
2018-05-07T06:35:27.368Z,53.12
2018-05-07T06:37:54.928Z,49.93
2018-05-07T06:40:22.484Z,51.26
2018-05-07T06:42:50.011Z,49.90
2018-05-07T06:45:17.579Z,47.99
2018-05-07T06:47:45.117Z,49.64
2018-05-07T06:50:12.687Z,49.34
2018-05-07T06:52:40.215Z,48.88
2018-05-07T06:55:07.751Z,44.76
2018-05-07T06:57:35.284Z,44.16
2018-05-07T07:00:02.931Z,43.53
2018-05-07T07:02:30.496Z,44.96
2018-05-07T07:04:58.005Z,42.87
2018-05-07T07:07:25.578Z,42.18
2018-05-07T07:09:53.105Z,41.68
2018-05-07T07:12:20.632Z,43.69
2018-05-07T07:14:48.156Z,41.85
2018-05-07T07:17:15.751Z,41.91
2018-05-07T07:19:43.275Z,44.13
2018-05-07T07:22:10.799Z,40.80
2018-05-07T07:24:38.427Z,39.82
2018-05-07T07:27:05.944Z,40.01
2018-05-07T07:29:33.468Z,42.49
2018-05-07T07:32:00.986Z,39.85
2018-05-07T07:34:28.504Z,40.79
2018-05-07T07:36:56.063Z,42.33
2018-05-07T07:39:23.698Z,41.35
2018-05-07T07:41:51.218Z,39.00
2018-05-07T07:44:18.762Z,42.04
2018-05-07T07:46:46.303Z,38.42
2018-05-07T07:49:13.812Z,35.38
2018-05-07T07:51:41.377Z,37.27
2018-05-07T07:54:08.921Z,35.50
2018-05-07T07:56:36.441Z,38.82
2018-05-07T07:59:04.065Z,36.96
2018-05-07T08:01:31.589Z,38.82
2018-05-07T08:03:59.176Z,40.73
2018-05-07T08:06:26.700Z,39.70
2018-05-07T08:08:54.236Z,38.10
2018-05-07T08:11:21.864Z,34.24
2018-05-07T08:13:49.390Z,33.44
2018-05-07T08:16:16.957Z,36.77
2018-05-07T08:18:44.528Z,36.33
2018-05-07T08:21:12.039Z,36.04
2018-05-07T08:23:39.667Z,35.38
2018-05-07T08:26:07.221Z,38.83
2018-05-07T08:28:34.739Z,37.03
2018-05-07T08:31:02.307Z,33.17
2018-05-07T08:33:29.910Z,33.17
2018-05-07T08:35:57.471Z,29.30
2018-05-07T08:38:24.992Z,33.69
2018-05-07T08:40:52.557Z,28.80
2018-05-07T08:43:20.072Z,31.06
2018-05-07T08:45:47.704Z,31.61
2018-05-07T08:48:15.272Z,30.03
2018-05-07T08:50:42.835Z,29.79
2018-05-07T08:53:10.360Z,25.94
2018-05-07T08:55:37.877Z,29.21
2018-05-07T08:58:05.401Z,29.02
2018-05-07T09:00:32.928Z,29.07
2018-05-07T09:03:00.456Z,30.69
2018-05-07T09:05:27.982Z,30.22
2018-05-07T09:07:55.613Z,29.14
2018-05-07T09:10:23.084Z,26.24
2018-05-07T09:12:50.660Z,24.89
2018-05-07T09:15:18.188Z,29.29
2018-05-07T09:17:45.708Z,27.06
2018-05-07T09:20:13.249Z,27.92
2018-05-07T09:22:40.772Z,26.61
2018-05-07T09:25:08.296Z,25.53
2018-05-07T09:27:35.818Z,24.66
2018-05-07T09:30:03.330Z,23.28
2018-05-07T09:32:30.858Z,23.76
2018-05-07T09:34:58.376Z,24.89
2018-05-07T09:37:25.910Z,25.41
2018-05-07T09:39:53.616Z,24.89
2018-05-07T09:42:21.141Z,24.66
2018-05-07T09:44:48.729Z,26.25
2018-05-07T09:47:16.284Z,25.21
2018-05-07T09:49:43.850Z,23.89
2018-05-07T09:52:11.519Z,23.75
2018-05-07T09:54:39.066Z,24.29
2018-05-07T09:57:06.757Z,23.80
2018-05-07T09:59:34.284Z,25.11
2018-05-07T10:02:01.860Z,25.02
2018-05-07T10:04:29.375Z,23.80
2018-05-07T10:06:56.981Z,23.21
2018-05-07T10:09:24.539Z,25.20
2018-05-07T10:11:52.065Z,23.73
2018-05-07T10:14:19.589Z,24.41
2018-05-07T10:16:47.115Z,24.76
2018-05-07T10:19:14.676Z,23.09
2018-05-07T10:21:42.195Z,26.06
2018-05-07T10:24:09.834Z,24.47
2018-05-07T10:26:37.339Z,23.38
2018-05-07T10:29:04.922Z,22.77
2018-05-07T10:31:32.501Z,23.56
2018-05-07T10:34:00.134Z,23.49
2018-05-07T10:36:27.664Z,22.68
2018-05-07T10:38:55.272Z,23.55
2018-05-07T10:41:22.793Z,21.68
2018-05-07T10:43:50.372Z,23.77
2018-05-07T10:46:17.939Z,24.34
2018-05-07T10:48:45.473Z,23.51
2018-05-07T10:51:12.987Z,24.54
2018-05-07T10:53:40.620Z,23.60
2018-05-07T10:56:08.134Z,24.77
2018-05-07T10:58:35.739Z,27.12
2018-05-07T11:01:03.302Z,27.52
2018-05-07T11:03:30.823Z,27.64
2018-05-07T11:05:58.380Z,27.42
2018-05-07T11:08:25.974Z,28.95
2018-05-07T11:10:53.497Z,29.15
2018-05-07T11:13:21.096Z,31.09
2018-05-07T11:15:48.621Z,31.08
2018-05-07T11:18:16.144Z,31.74
2018-05-07T11:20:43.781Z,32.12
2018-05-07T11:23:11.304Z,33.10
2018-05-07T11:25:38.836Z,32.03
2018-05-07T11:28:06.349Z,32.93
2018-05-07T11:30:33.867Z,31.55
2018-05-07T11:33:01.403Z,32.27
2018-05-07T11:35:28.951Z,34.36
2018-05-07T11:37:56.475Z,33.53
2018-05-07T11:40:24.044Z,33.52
2018-05-07T11:42:51.568Z,35.34
2018-05-07T11:45:19.110Z,35.81
2018-05-07T11:47:46.675Z,35.81
2018-05-07T11:50:14.164Z,35.64
2018-05-07T11:52:41.693Z,35.61
2018-05-07T11:55:09.211Z,34.96
2018-05-07T11:57:36.737Z,33.91
2018-05-07T12:00:04.329Z,34.18
2018-05-07T12:02:31.939Z,35.00
2018-05-07T12:04:59.399Z,34.53
2018-05-07T12:07:26.996Z,34.58
2018-05-07T12:09:54.532Z,36.16
2018-05-07T12:12:22.058Z,36.07
2018-05-07T12:14:49.590Z,35.84
2018-05-07T12:17:17.153Z,36.34
2018-05-07T12:19:44.665Z,35.44
2018-05-07T12:22:12.219Z,35.18
2018-05-07T12:24:39.759Z,35.00
2018-05-07T12:27:07.291Z,34.44
2018-05-07T12:29:34.810Z,35.57
2018-05-07T12:32:02.393Z,36.39
2018-05-07T12:34:29.923Z,36.37
2018-05-07T12:36:57.435Z,36.87
2018-05-07T12:39:24.943Z,36.23
2018-05-07T12:41:52.543Z,35.90
2018-05-07T12:44:20.069Z,36.25
2018-05-07T12:46:47.679Z,36.74
2018-05-07T12:49:15.213Z,36.26
2018-05-07T12:51:42.735Z,36.71
2018-05-07T12:54:10.282Z,37.11
2018-05-07T12:56:37.800Z,36.46
2018-05-07T12:59:05.326Z,36.84
2018-05-07T13:01:32.860Z,37.12
2018-05-07T13:04:00.480Z,37.46
2018-05-07T13:06:28.001Z,36.77
2018-05-07T13:08:55.600Z,36.55
2018-05-07T13:11:23.188Z,36.43
2018-05-07T13:13:50.792Z,38.04
2018-05-07T13:16:18.309Z,38.17
2018-05-07T13:18:45.943Z,38.13
2018-05-07T13:21:13.484Z,38.46
2018-05-07T13:23:41.012Z,37.52
2018-05-07T13:26:08.538Z,38.13
2018-05-07T13:28:36.167Z,36.84
2018-05-07T13:31:03.681Z,36.47
2018-05-07T13:33:31.206Z,36.91
2018-05-07T13:35:58.724Z,37.04
2018-05-07T13:38:26.316Z,36.45
2018-05-07T13:40:53.843Z,37.51
2018-05-07T13:43:21.456Z,37.69
2018-05-07T13:45:48.973Z,37.46
2018-05-07T13:48:16.488Z,36.28
2018-05-07T13:50:44.020Z,36.57
2018-05-07T13:53:11.574Z,35.25
2018-05-07T13:55:39.104Z,34.30
2018-05-07T13:58:06.627Z,34.45
2018-05-07T14:00:34.156Z,34.18
2018-05-07T14:03:01.736Z,32.60
2018-05-07T14:05:29.276Z,34.18
2018-05-07T14:07:56.802Z,35.27
2018-05-07T14:10:24.399Z,36.05
2018-05-07T14:12:51.921Z,36.00
2018-05-07T14:15:19.465Z,33.46
2018-05-07T14:17:46.986Z,34.12
2018-05-07T14:20:14.511Z,34.23
2018-05-07T14:22:42.026Z,34.18
2018-05-07T14:25:09.546Z,34.78
2018-05-07T14:27:37.066Z,36.16
2018-05-07T14:30:04.635Z,35.94
2018-05-07T14:32:32.151Z,35.60
2018-05-07T14:34:59.689Z,35.84
2018-05-07T14:37:27.247Z,35.96
2018-05-07T14:39:54.790Z,35.81
2018-05-07T14:42:22.324Z,36.60
2018-05-07T14:44:49.849Z,36.30
2018-05-07T14:47:17.374Z,35.26
2018-05-07T14:49:44.903Z,35.01
2018-05-07T14:52:12.444Z,34.24
2018-05-07T14:54:40.063Z,34.40
2018-05-07T14:57:07.633Z,34.57
2018-05-07T14:59:35.158Z,34.80
2018-05-07T15:02:02.745Z,34.93
2018-05-07T15:04:30.275Z,35.50
2018-05-07T15:06:57.790Z,34.95
2018-05-07T15:09:25.319Z,35.09
2018-05-07T15:11:52.884Z,34.30
2018-05-07T15:14:24.239Z,34.13
2018-05-07T15:16:51.763Z,33.89
2018-05-07T15:19:19.284Z,33.96
2018-05-07T15:21:46.810Z,34.40
2018-05-07T15:24:14.369Z,33.95
2018-05-07T15:26:41.892Z,34.10
2018-05-07T15:29:09.509Z,34.51
2018-05-07T15:31:36.981Z,35.50
2018-05-07T15:34:04.568Z,35.88
2018-05-07T15:36:32.122Z,35.26
2018-05-07T15:39:00.006Z,34.74
2018-05-07T15:41:27.527Z,35.05
2018-05-07T15:43:55.054Z,35.01
2018-05-07T15:46:22.582Z,34.76
2018-05-07T15:48:50.132Z,34.55
2018-05-07T15:51:17.672Z,34.26
2018-05-07T15:53:45.355Z,34.19
2018-05-07T15:56:12.922Z,34.20
2018-05-07T15:58:40.444Z,34.38
2018-05-07T16:01:07.975Z,34.12
2018-05-07T16:03:35.491Z,33.72
2018-05-07T16:06:03.079Z,33.93
2018-05-07T16:08:30.598Z,34.30
2018-05-07T16:10:58.123Z,34.05
2018-05-07T16:13:25.786Z,34.24
2018-05-07T16:15:53.320Z,34.49
2018-05-07T16:18:20.866Z,33.94
2018-05-07T16:20:48.454Z,34.13
2018-05-07T16:23:16.232Z,34.45
2018-05-07T16:25:43.671Z,34.68
2018-05-07T16:28:11.174Z,35.07
2018-05-07T16:30:38.697Z,35.05
2018-05-07T16:33:06.245Z,34.94
2018-05-07T16:35:33.819Z,34.92
2018-05-07T16:38:01.347Z,35.12
2018-05-07T16:40:28.861Z,35.87
2018-05-07T16:42:56.391Z,36.58
2018-05-07T16:45:23.907Z,36.75
2018-05-07T16:47:51.525Z,36.35
2018-05-07T16:50:19.087Z,36.73
2018-05-07T16:52:46.763Z,36.89
2018-05-07T16:55:14.307Z,36.84
2018-05-07T16:57:41.920Z,36.31
2018-05-07T17:00:09.440Z,36.47
2018-05-07T17:02:36.983Z,37.60
2018-05-07T17:05:04.529Z,37.43
2018-05-07T17:07:32.090Z,37.85
2018-05-07T17:09:59.635Z,38.33
2018-05-07T17:12:27.215Z,37.15
2018-05-07T17:14:54.769Z,37.97
2018-05-07T17:17:22.329Z,38.54
2018-05-07T17:19:49.880Z,38.38
2018-05-07T17:22:17.396Z,38.21
2018-05-07T17:24:44.978Z,38.18
2018-05-07T17:27:12.496Z,37.49
2018-05-07T17:29:40.118Z,37.67
2018-05-07T17:32:07.761Z,38.13
2018-05-07T17:34:35.353Z,38.18
2018-05-07T17:37:02.867Z,38.70
2018-05-07T17:39:30.613Z,38.62
2018-05-07T17:41:58.124Z,39.03
2018-05-07T17:44:37.399Z,38.28
2018-05-07T17:47:16.833Z,38.66
2018-05-07T17:49:44.459Z,38.88
2018-05-07T17:52:11.968Z,39.07
2018-05-07T17:54:39.501Z,39.14
2018-05-07T17:57:07.150Z,39.13
2018-05-07T17:59:34.668Z,39.36
2018-05-07T18:02:02.204Z,39.26
2018-05-07T18:04:29.799Z,38.78
2018-05-07T18:06:57.393Z,38.34
2018-05-07T18:09:24.954Z,38.85
2018-05-07T18:11:52.481Z,39.03
2018-05-07T18:14:20.000Z,39.56
2018-05-07T18:16:47.531Z,38.93
2018-05-07T18:19:15.127Z,38.92
2018-05-07T18:21:42.675Z,39.16
2018-05-07T18:24:10.197Z,38.97
2018-05-07T18:26:37.734Z,39.35
2018-05-07T18:29:05.253Z,39.75
2018-05-07T18:31:32.772Z,40.32
2018-05-07T18:34:00.302Z,39.40
2018-05-07T18:36:27.819Z,40.01
2018-05-07T18:38:55.452Z,40.31
2018-05-07T18:41:22.964Z,40.07
2018-05-07T18:43:50.547Z,40.69
2018-05-07T18:46:18.067Z,40.97
2018-05-07T18:48:45.693Z,39.91
2018-05-07T18:51:13.268Z,40.01
2018-05-07T18:53:40.791Z,39.89
2018-05-07T18:56:08.317Z,40.30
2018-05-07T18:58:35.947Z,40.70
2018-05-07T19:01:03.474Z,41.72
2018-05-07T19:03:31.007Z,41.10
2018-05-07T19:05:58.527Z,40.96
2018-05-07T19:08:26.082Z,41.20
2018-05-07T19:10:53.599Z,41.00
2018-05-07T19:13:21.138Z,40.86
2018-05-07T19:15:48.647Z,41.20
2018-05-07T19:18:16.221Z,41.46
2018-05-07T19:20:43.749Z,41.29
2018-05-07T19:23:11.273Z,41.27
2018-05-07T19:25:38.808Z,41.44
2018-05-07T19:28:06.362Z,41.59
2018-05-07T19:30:33.879Z,41.82
2018-05-07T19:33:01.448Z,41.84
2018-05-07T19:35:29.041Z,41.88
2018-05-07T19:37:56.616Z,42.06
2018-05-07T19:40:24.231Z,42.14
2018-05-07T19:42:51.752Z,42.52
2018-05-07T19:45:19.276Z,43.15
2018-05-07T19:47:46.809Z,43.14
2018-05-07T19:50:14.333Z,42.97
2018-05-07T19:52:41.855Z,43.25
2018-05-07T19:55:09.385Z,43.17
2018-05-07T19:57:36.912Z,43.18
2018-05-07T20:00:04.506Z,43.22
2018-05-07T20:02:32.092Z,44.16
2018-05-07T20:04:59.611Z,43.90
2018-05-07T20:07:27.150Z,43.52
2018-05-07T20:09:54.704Z,43.74
2018-05-07T20:12:22.277Z,44.15
2018-05-07T20:14:49.790Z,44.47
2018-05-07T20:17:17.307Z,44.49
2018-05-07T20:19:44.823Z,44.13
2018-05-07T20:22:12.337Z,44.35
2018-05-07T20:24:39.898Z,44.43
2018-05-07T20:27:07.420Z,44.89
2018-05-07T20:29:34.950Z,45.03
2018-05-07T20:32:02.464Z,45.20
2018-05-07T20:34:29.988Z,45.33
2018-05-07T20:36:57.508Z,45.05
2018-05-07T20:39:25.045Z,45.23
2018-05-07T20:41:52.631Z,46.79
2018-05-07T20:44:20.264Z,47.04
2018-05-07T20:46:47.824Z,46.48
2018-05-07T20:49:15.432Z,46.62
2018-05-07T20:51:42.975Z,46.61
2018-05-07T20:54:10.684Z,47.36
2018-05-07T20:56:38.212Z,45.88
2018-05-07T20:59:05.729Z,45.75
2018-05-07T21:01:33.260Z,45.83
2018-05-07T21:04:00.777Z,46.97
2018-05-07T21:06:28.318Z,46.27
2018-05-07T21:08:55.910Z,46.18
2018-05-07T21:11:23.438Z,46.39
2018-05-07T21:13:51.132Z,45.92
2018-05-07T21:16:18.656Z,46.21
2018-05-07T21:18:46.254Z,46.74
2018-05-07T21:21:13.827Z,47.65
2018-05-07T21:23:42.291Z,47.55
2018-05-07T21:26:09.805Z,46.94
2018-05-07T21:28:37.405Z,47.12
2018-05-07T21:31:05.058Z,46.86
2018-05-07T21:33:32.568Z,46.94
2018-05-07T21:36:00.093Z,47.99
2018-05-07T21:38:27.617Z,48.13
2018-05-07T21:40:55.141Z,47.28
2018-05-07T21:43:22.710Z,47.71
2018-05-07T21:45:50.334Z,47.90
2018-05-07T21:48:17.865Z,47.72
2018-05-07T21:50:45.420Z,48.89
2018-05-07T21:53:13.012Z,48.81
2018-05-07T21:55:41.149Z,49.60
2018-05-07T21:58:08.749Z,48.13
2018-05-07T22:00:36.270Z,49.61
2018-05-07T22:03:03.838Z,49.03
2018-05-07T22:05:31.425Z,48.70
2018-05-07T22:07:58.958Z,48.28
2018-05-07T22:10:26.530Z,48.47
2018-05-07T22:12:54.039Z,48.63
2018-05-07T22:15:21.564Z,48.84
2018-05-07T22:17:49.093Z,49.84
2018-05-07T22:20:16.608Z,48.87
2018-05-07T22:22:44.123Z,49.56
2018-05-07T22:25:11.715Z,49.67
2018-05-07T22:27:39.265Z,49.45
2018-05-07T22:30:06.789Z,49.74
2018-05-07T22:32:34.323Z,50.13
2018-05-07T22:35:01.932Z,49.48
2018-05-07T22:37:29.451Z,49.36
2018-05-07T22:39:57.043Z,50.11
2018-05-07T22:42:24.555Z,51.56
2018-05-07T22:44:52.235Z,49.71
2018-05-07T22:47:19.777Z,50.13
2018-05-07T22:49:47.308Z,50.53
2018-05-07T22:52:14.914Z,50.76
2018-05-07T22:54:42.388Z,50.84
2018-05-07T22:57:09.914Z,49.96
2018-05-07T22:59:37.475Z,51.21
2018-05-07T23:02:05.005Z,51.26
2018-05-07T23:04:32.523Z,50.67
2018-05-07T23:07:00.172Z,50.93
2018-05-07T23:09:27.840Z,51.10
2018-05-07T23:11:55.355Z,50.27
2018-05-07T23:14:22.898Z,51.52
2018-05-07T23:16:50.429Z,50.74
2018-05-07T23:19:17.948Z,51.84
2018-05-07T23:21:45.569Z,51.18
2018-05-07T23:24:13.100Z,51.00
2018-05-07T23:26:40.628Z,51.66
2018-05-07T23:29:08.189Z,51.90
2018-05-07T23:31:35.727Z,51.54
2018-05-07T23:34:03.253Z,51.90
2018-05-07T23:36:30.787Z,51.26
2018-05-07T23:38:58.308Z,51.58
2018-05-07T23:41:25.829Z,52.50
2018-05-07T23:43:53.343Z,51.68
2018-05-07T23:46:20.873Z,51.92
2018-05-07T23:48:48.401Z,53.30
2018-05-07T23:51:15.921Z,53.02
2018-05-07T23:53:43.451Z,52.18
2018-05-07T23:56:10.969Z,52.57
2018-05-07T23:58:38.559Z,53.27
